sensor_id;sensor_type;location;lat;lon;timestamp;P1;durP1;ratioP1;P2;durP2;ratioP2
14294;SDS011;7231;59.370;18.016;2023-10-19T00:02:46;3.93;;;1.53;;
14294;SDS011;7231;59.370;18.016;2023-10-19T00:05:19;2.43;;;1.37;;
14294;SDS011;7231;59.370;18.016;2023-10-19T00:07:46;3.20;;;1.07;;
14294;SDS011;7231;59.370;18.016;2023-10-19T00:10:14;2.07;;;1.17;;
14294;SDS011;7231;59.370;18.016;2023-10-19T00:12:43;2.13;;;1.30;;
14294;SDS011;7231;59.370;18.016;2023-10-19T00:15:10;2.93;;;1.40;;
14294;SDS011;7231;59.370;18.016;2023-10-19T00:17:40;3.83;;;1.30;;
14294;SDS011;7231;59.370;18.016;2023-10-19T00:20:11;2.60;;;1.13;;
14294;SDS011;7231;59.370;18.016;2023-10-19T00:22:54;2.23;;;1.30;;
14294;SDS011;7231;59.370;18.016;2023-10-19T00:25:23;2.30;;;1.20;;
14294;SDS011;7231;59.370;18.016;2023-10-19T00:27:52;1.77;;;1.10;;
14294;SDS011;7231;59.370;18.016;2023-10-19T00:30:20;1.47;;;1.00;;
14294;SDS011;7231;59.370;18.016;2023-10-19T00:32:50;1.77;;;1.10;;
14294;SDS011;7231;59.370;18.016;2023-10-19T00:35:20;1.27;;;0.90;;
14294;SDS011;7231;59.370;18.016;2023-10-19T00:38:02;1.83;;;1.00;;
14294;SDS011;7231;59.370;18.016;2023-10-19T00:40:50;1.10;;;0.90;;
14294;SDS011;7231;59.370;18.016;2023-10-19T00:43:26;1.80;;;0.97;;
14294;SDS011;7231;59.370;18.016;2023-10-19T00:45:59;1.93;;;1.40;;
14294;SDS011;7231;59.370;18.016;2023-10-19T00:48:31;1.60;;;1.27;;
14294;SDS011;7231;59.370;18.016;2023-10-19T00:51:01;2.60;;;1.10;;
14294;SDS011;7231;59.370;18.016;2023-10-19T00:53:38;2.13;;;1.10;;
14294;SDS011;7231;59.370;18.016;2023-10-19T00:56:07;1.87;;;1.00;;
14294;SDS011;7231;59.370;18.016;2023-10-19T00:58:37;3.17;;;1.37;;
14294;SDS011;7231;59.370;18.016;2023-10-19T01:01:07;1.30;;;1.00;;
14294;SDS011;7231;59.370;18.016;2023-10-19T01:03:36;1.73;;;1.20;;
14294;SDS011;7231;59.370;18.016;2023-10-19T01:06:05;2.13;;;1.10;;
14294;SDS011;7231;59.370;18.016;2023-10-19T01:08:40;2.70;;;1.20;;
14294;SDS011;7231;59.370;18.016;2023-10-19T01:11:09;1.33;;;1.10;;
14294;SDS011;7231;59.370;18.016;2023-10-19T01:13:38;2.00;;;1.00;;
14294;SDS011;7231;59.370;18.016;2023-10-19T01:16:14;1.13;;;1.03;;
14294;SDS011;7231;59.370;18.016;2023-10-19T01:18:48;1.37;;;1.10;;
14294;SDS011;7231;59.370;18.016;2023-10-19T01:21:21;2.83;;;1.00;;
14294;SDS011;7231;59.370;18.016;2023-10-19T01:23:55;1.17;;;0.93;;
14294;SDS011;7231;59.370;18.016;2023-10-19T01:26:24;2.27;;;1.10;;
14294;SDS011;7231;59.370;18.016;2023-10-19T01:28:53;3.43;;;1.27;;
14294;SDS011;7231;59.370;18.016;2023-10-19T01:31:27;2.10;;;1.00;;
14294;SDS011;7231;59.370;18.016;2023-10-19T01:34:04;3.50;;;1.13;;
14294;SDS011;7231;59.370;18.016;2023-10-19T01:36:33;1.93;;;0.93;;
14294;SDS011;7231;59.370;18.016;2023-10-19T01:39:10;1.27;;;0.90;;
14294;SDS011;7231;59.370;18.016;2023-10-19T01:41:38;3.83;;;1.20;;
14294;SDS011;7231;59.370;18.016;2023-10-19T01:44:07;1.03;;;0.70;;
14294;SDS011;7231;59.370;18.016;2023-10-19T01:46:40;1.53;;;0.90;;
14294;SDS011;7231;59.370;18.016;2023-10-19T01:49:10;1.83;;;1.00;;
14294;SDS011;7231;59.370;18.016;2023-10-19T01:51:38;2.03;;;1.30;;
14294;SDS011;7231;59.370;18.016;2023-10-19T01:54:06;3.23;;;1.10;;
14294;SDS011;7231;59.370;18.016;2023-10-19T01:56:37;2.50;;;1.00;;
14294;SDS011;7231;59.370;18.016;2023-10-19T01:59:06;2.33;;;1.17;;
14294;SDS011;7231;59.370;18.016;2023-10-19T02:01:35;2.60;;;1.20;;
14294;SDS011;7231;59.370;18.016;2023-10-19T02:04:04;2.17;;;1.20;;
14294;SDS011;7231;59.370;18.016;2023-10-19T02:06:35;2.07;;;1.13;;
14294;SDS011;7231;59.370;18.016;2023-10-19T02:09:04;1.23;;;0.90;;
14294;SDS011;7231;59.370;18.016;2023-10-19T02:11:45;1.73;;;1.00;;
14294;SDS011;7231;59.370;18.016;2023-10-19T02:14:13;1.77;;;0.93;;
14294;SDS011;7231;59.370;18.016;2023-10-19T02:16:42;1.70;;;0.87;;
14294;SDS011;7231;59.370;18.016;2023-10-19T02:19:10;3.17;;;0.73;;
14294;SDS011;7231;59.370;18.016;2023-10-19T02:21:38;2.57;;;1.10;;
14294;SDS011;7231;59.370;18.016;2023-10-19T02:24:06;2.60;;;0.90;;
14294;SDS011;7231;59.370;18.016;2023-10-19T02:26:35;2.33;;;1.00;;
14294;SDS011;7231;59.370;18.016;2023-10-19T02:29:05;1.53;;;1.00;;
14294;SDS011;7231;59.370;18.016;2023-10-19T02:31:35;1.03;;;0.80;;
14294;SDS011;7231;59.370;18.016;2023-10-19T02:34:04;1.17;;;0.77;;
14294;SDS011;7231;59.370;18.016;2023-10-19T02:36:33;1.80;;;0.90;;
14294;SDS011;7231;59.370;18.016;2023-10-19T02:39:01;2.43;;;1.10;;
14294;SDS011;7231;59.370;18.016;2023-10-19T02:41:34;1.93;;;0.87;;
14294;SDS011;7231;59.370;18.016;2023-10-19T02:44:02;1.37;;;0.90;;
14294;SDS011;7231;59.370;18.016;2023-10-19T02:46:37;2.87;;;0.73;;
14294;SDS011;7231;59.370;18.016;2023-10-19T02:49:06;3.83;;;0.93;;
14294;SDS011;7231;59.370;18.016;2023-10-19T02:51:38;0.97;;;0.80;;
14294;SDS011;7231;59.370;18.016;2023-10-19T02:54:05;1.43;;;0.93;;
14294;SDS011;7231;59.370;18.016;2023-10-19T02:56:34;2.83;;;1.00;;
14294;SDS011;7231;59.370;18.016;2023-10-19T02:59:02;2.03;;;1.10;;
14294;SDS011;7231;59.370;18.016;2023-10-19T03:01:30;4.00;;;0.90;;
14294;SDS011;7231;59.370;18.016;2023-10-19T03:04:01;1.20;;;0.80;;
14294;SDS011;7231;59.370;18.016;2023-10-19T03:06:31;1.53;;;0.80;;
14294;SDS011;7231;59.370;18.016;2023-10-19T03:08:59;1.40;;;0.73;;
14294;SDS011;7231;59.370;18.016;2023-10-19T03:11:39;2.60;;;1.10;;
14294;SDS011;7231;59.370;18.016;2023-10-19T03:14:07;2.93;;;0.90;;
14294;SDS011;7231;59.370;18.016;2023-10-19T03:16:35;2.17;;;1.17;;
14294;SDS011;7231;59.370;18.016;2023-10-19T03:19:04;3.03;;;1.30;;
14294;SDS011;7231;59.370;18.016;2023-10-19T03:21:34;1.97;;;0.87;;
14294;SDS011;7231;59.370;18.016;2023-10-19T03:24:09;1.80;;;1.00;;
14294;SDS011;7231;59.370;18.016;2023-10-19T03:26:39;0.70;;;0.67;;
14294;SDS011;7231;59.370;18.016;2023-10-19T03:29:11;1.17;;;1.00;;
14294;SDS011;7231;59.370;18.016;2023-10-19T03:31:41;1.93;;;0.93;;
14294;SDS011;7231;59.370;18.016;2023-10-19T03:34:12;2.53;;;1.77;;
14294;SDS011;7231;59.370;18.016;2023-10-19T03:36:43;2.03;;;0.90;;
14294;SDS011;7231;59.370;18.016;2023-10-19T03:39:11;4.27;;;1.23;;
14294;SDS011;7231;59.370;18.016;2023-10-19T03:41:40;4.50;;;1.20;;
14294;SDS011;7231;59.370;18.016;2023-10-19T03:44:10;2.40;;;0.87;;
14294;SDS011;7231;59.370;18.016;2023-10-19T03:46:45;2.07;;;1.00;;
14294;SDS011;7231;59.370;18.016;2023-10-19T03:49:26;1.67;;;0.70;;
14294;SDS011;7231;59.370;18.016;2023-10-19T03:52:01;3.27;;;0.97;;
14294;SDS011;7231;59.370;18.016;2023-10-19T03:54:47;2.03;;;0.90;;
14294;SDS011;7231;59.370;18.016;2023-10-19T03:57:15;1.67;;;0.93;;
14294;SDS011;7231;59.370;18.016;2023-10-19T03:59:49;2.10;;;1.03;;
14294;SDS011;7231;59.370;18.016;2023-10-19T04:02:20;1.73;;;1.00;;
14294;SDS011;7231;59.370;18.016;2023-10-19T04:04:51;2.03;;;1.13;;
14294;SDS011;7231;59.370;18.016;2023-10-19T04:07:22;3.23;;;1.17;;
14294;SDS011;7231;59.370;18.016;2023-10-19T04:09:52;2.33;;;1.10;;
14294;SDS011;7231;59.370;18.016;2023-10-19T04:12:26;1.20;;;0.97;;
14294;SDS011;7231;59.370;18.016;2023-10-19T04:14:55;3.70;;;1.57;;
14294;SDS011;7231;59.370;18.016;2023-10-19T04:17:23;1.60;;;1.00;;
14294;SDS011;7231;59.370;18.016;2023-10-19T04:19:53;2.13;;;0.90;;
14294;SDS011;7231;59.370;18.016;2023-10-19T04:22:22;2.83;;;1.00;;
14294;SDS011;7231;59.370;18.016;2023-10-19T04:24:50;5.77;;;1.27;;
14294;SDS011;7231;59.370;18.016;2023-10-19T04:27:18;2.23;;;1.07;;
14294;SDS011;7231;59.370;18.016;2023-10-19T04:29:49;2.63;;;1.23;;
14294;SDS011;7231;59.370;18.016;2023-10-19T04:32:18;1.47;;;1.07;;
14294;SDS011;7231;59.370;18.016;2023-10-19T04:34:53;1.97;;;1.07;;
14294;SDS011;7231;59.370;18.016;2023-10-19T04:37:21;2.60;;;1.23;;
14294;SDS011;7231;59.370;18.016;2023-10-19T04:39:50;4.50;;;1.20;;
14294;SDS011;7231;59.370;18.016;2023-10-19T04:42:18;5.53;;;1.20;;
14294;SDS011;7231;59.370;18.016;2023-10-19T04:44:49;2.90;;;1.33;;
14294;SDS011;7231;59.370;18.016;2023-10-19T04:47:17;1.43;;;1.00;;
14294;SDS011;7231;59.370;18.016;2023-10-19T04:49:45;2.43;;;1.27;;
14294;SDS011;7231;59.370;18.016;2023-10-19T04:52:14;4.60;;;1.10;;
14294;SDS011;7231;59.370;18.016;2023-10-19T04:54:43;5.77;;;1.23;;
14294;SDS011;7231;59.370;18.016;2023-10-19T04:57:11;2.17;;;1.17;;
14294;SDS011;7231;59.370;18.016;2023-10-19T04:59:39;3.13;;;1.20;;
14294;SDS011;7231;59.370;18.016;2023-10-19T05:02:11;1.87;;;1.20;;
14294;SDS011;7231;59.370;18.016;2023-10-19T05:04:39;3.30;;;1.40;;
14294;SDS011;7231;59.370;18.016;2023-10-19T05:07:08;2.03;;;1.37;;
14294;SDS011;7231;59.370;18.016;2023-10-19T05:09:39;2.73;;;1.40;;
14294;SDS011;7231;59.370;18.016;2023-10-19T05:12:07;4.17;;;1.63;;
14294;SDS011;7231;59.370;18.016;2023-10-19T05:14:38;2.90;;;1.47;;
14294;SDS011;7231;59.370;18.016;2023-10-19T05:17:07;2.80;;;1.20;;
14294;SDS011;7231;59.370;18.016;2023-10-19T05:19:37;3.70;;;1.53;;
14294;SDS011;7231;59.370;18.016;2023-10-19T05:22:06;3.53;;;1.47;;
14294;SDS011;7231;59.370;18.016;2023-10-19T05:24:35;2.83;;;1.33;;
14294;SDS011;7231;59.370;18.016;2023-10-19T05:27:05;2.60;;;1.30;;
14294;SDS011;7231;59.370;18.016;2023-10-19T05:29:38;8.57;;;1.53;;
14294;SDS011;7231;59.370;18.016;2023-10-19T05:32:06;3.60;;;1.53;;
14294;SDS011;7231;59.370;18.016;2023-10-19T05:34:36;5.90;;;1.53;;
14294;SDS011;7231;59.370;18.016;2023-10-19T05:37:03;4.20;;;1.63;;
14294;SDS011;7231;59.370;18.016;2023-10-19T05:39:32;4.00;;;2.60;;
14294;SDS011;7231;59.370;18.016;2023-10-19T05:42:00;3.67;;;2.40;;
14294;SDS011;7231;59.370;18.016;2023-10-19T05:44:30;3.13;;;1.50;;
14294;SDS011;7231;59.370;18.016;2023-10-19T05:46:58;2.03;;;1.83;;
14294;SDS011;7231;59.370;18.016;2023-10-19T05:49:27;4.40;;;1.77;;
14294;SDS011;7231;59.370;18.016;2023-10-19T05:51:58;3.27;;;1.90;;
14294;SDS011;7231;59.370;18.016;2023-10-19T05:54:26;2.50;;;1.90;;
14294;SDS011;7231;59.370;18.016;2023-10-19T05:56:55;5.30;;;2.10;;
14294;SDS011;7231;59.370;18.016;2023-10-19T05:59:23;5.20;;;2.13;;
14294;SDS011;7231;59.370;18.016;2023-10-19T06:01:54;3.40;;;1.90;;
14294;SDS011;7231;59.370;18.016;2023-10-19T06:04:22;2.40;;;1.73;;
14294;SDS011;7231;59.370;18.016;2023-10-19T06:06:50;3.97;;;2.13;;
14294;SDS011;7231;59.370;18.016;2023-10-19T06:09:18;3.03;;;2.00;;
14294;SDS011;7231;59.370;18.016;2023-10-19T06:11:46;2.87;;;1.97;;
14294;SDS011;7231;59.370;18.016;2023-10-19T06:14:16;1.80;;;1.70;;
14294;SDS011;7231;59.370;18.016;2023-10-19T06:16:44;2.50;;;1.70;;
14294;SDS011;7231;59.370;18.016;2023-10-19T06:19:14;3.10;;;1.60;;
14294;SDS011;7231;59.370;18.016;2023-10-19T06:21:42;1.90;;;1.60;;
14294;SDS011;7231;59.370;18.016;2023-10-19T06:24:10;2.00;;;1.80;;
14294;SDS011;7231;59.370;18.016;2023-10-19T06:26:42;2.23;;;1.50;;
14294;SDS011;7231;59.370;18.016;2023-10-19T06:29:10;3.77;;;1.90;;
14294;SDS011;7231;59.370;18.016;2023-10-19T06:31:38;1.50;;;1.27;;
14294;SDS011;7231;59.370;18.016;2023-10-19T06:34:06;2.67;;;1.57;;
14294;SDS011;7231;59.370;18.016;2023-10-19T06:36:35;2.73;;;1.20;;
14294;SDS011;7231;59.370;18.016;2023-10-19T06:39:04;2.60;;;1.80;;
14294;SDS011;7231;59.370;18.016;2023-10-19T06:41:32;2.83;;;1.70;;
14294;SDS011;7231;59.370;18.016;2023-10-19T06:44:01;2.67;;;1.67;;
14294;SDS011;7231;59.370;18.016;2023-10-19T06:46:29;3.50;;;1.73;;
14294;SDS011;7231;59.370;18.016;2023-10-19T06:48:57;3.47;;;1.60;;
14294;SDS011;7231;59.370;18.016;2023-10-19T06:51:27;2.80;;;1.53;;
14294;SDS011;7231;59.370;18.016;2023-10-19T06:53:57;3.37;;;1.83;;
14294;SDS011;7231;59.370;18.016;2023-10-19T06:56:25;2.53;;;1.57;;
14294;SDS011;7231;59.370;18.016;2023-10-19T06:58:53;2.80;;;1.50;;
14294;SDS011;7231;59.370;18.016;2023-10-19T07:01:21;4.27;;;1.70;;
14294;SDS011;7231;59.370;18.016;2023-10-19T07:03:52;3.43;;;1.57;;
14294;SDS011;7231;59.370;18.016;2023-10-19T07:06:20;3.20;;;1.60;;
14294;SDS011;7231;59.370;18.016;2023-10-19T07:08:48;3.53;;;1.40;;
14294;SDS011;7231;59.370;18.016;2023-10-19T07:11:18;2.27;;;1.50;;
14294;SDS011;7231;59.370;18.016;2023-10-19T07:13:46;3.37;;;1.20;;
14294;SDS011;7231;59.370;18.016;2023-10-19T07:16:14;1.97;;;1.20;;
14294;SDS011;7231;59.370;18.016;2023-10-19T07:18:42;2.27;;;1.30;;
14294;SDS011;7231;59.370;18.016;2023-10-19T07:21:10;3.33;;;1.30;;
14294;SDS011;7231;59.370;18.016;2023-10-19T07:23:39;3.10;;;1.20;;
14294;SDS011;7231;59.370;18.016;2023-10-19T07:26:07;3.00;;;1.17;;
14294;SDS011;7231;59.370;18.016;2023-10-19T07:28:36;2.63;;;1.17;;
14294;SDS011;7231;59.370;18.016;2023-10-19T07:31:06;2.23;;;1.00;;
14294;SDS011;7231;59.370;18.016;2023-10-19T07:33:39;3.13;;;1.43;;
14294;SDS011;7231;59.370;18.016;2023-10-19T07:36:12;2.53;;;1.00;;
14294;SDS011;7231;59.370;18.016;2023-10-19T07:38:41;1.67;;;0.93;;
14294;SDS011;7231;59.370;18.016;2023-10-19T07:41:10;1.00;;;0.80;;
14294;SDS011;7231;59.370;18.016;2023-10-19T07:43:39;1.67;;;0.90;;
14294;SDS011;7231;59.370;18.016;2023-10-19T07:46:07;1.60;;;1.03;;
14294;SDS011;7231;59.370;18.016;2023-10-19T07:48:34;3.20;;;1.00;;
14294;SDS011;7231;59.370;18.016;2023-10-19T07:51:03;1.97;;;0.83;;
14294;SDS011;7231;59.370;18.016;2023-10-19T07:53:31;1.83;;;0.97;;
14294;SDS011;7231;59.370;18.016;2023-10-19T07:55:59;2.10;;;0.87;;
14294;SDS011;7231;59.370;18.016;2023-10-19T07:58:27;2.00;;;0.80;;
14294;SDS011;7231;59.370;18.016;2023-10-19T08:00:56;1.60;;;0.80;;
14294;SDS011;7231;59.370;18.016;2023-10-19T08:03:25;2.97;;;0.70;;
14294;SDS011;7231;59.370;18.016;2023-10-19T08:05:52;1.87;;;0.80;;
14294;SDS011;7231;59.370;18.016;2023-10-19T08:08:20;1.37;;;0.83;;
14294;SDS011;7231;59.370;18.016;2023-10-19T08:10:51;2.20;;;1.00;;
14294;SDS011;7231;59.370;18.016;2023-10-19T08:13:19;2.50;;;1.00;;
14294;SDS011;7231;59.370;18.016;2023-10-19T08:15:47;4.47;;;0.90;;
14294;SDS011;7231;59.370;18.016;2023-10-19T08:18:16;2.00;;;1.10;;
14294;SDS011;7231;59.370;18.016;2023-10-19T08:20:44;2.47;;;0.93;;
14294;SDS011;7231;59.370;18.016;2023-10-19T08:23:15;3.13;;;0.90;;
14294;SDS011;7231;59.370;18.016;2023-10-19T08:25:49;1.87;;;1.03;;
14294;SDS011;7231;59.370;18.016;2023-10-19T08:28:22;2.53;;;1.27;;
14294;SDS011;7231;59.370;18.016;2023-10-19T08:30:50;1.60;;;0.90;;
14294;SDS011;7231;59.370;18.016;2023-10-19T08:33:29;1.03;;;0.90;;
14294;SDS011;7231;59.370;18.016;2023-10-19T08:36:00;1.67;;;0.90;;
14294;SDS011;7231;59.370;18.016;2023-10-19T08:38:28;1.80;;;1.00;;
14294;SDS011;7231;59.370;18.016;2023-10-19T08:40:56;1.57;;;0.70;;
14294;SDS011;7231;59.370;18.016;2023-10-19T08:43:25;2.83;;;1.03;;
14294;SDS011;7231;59.370;18.016;2023-10-19T08:45:54;2.03;;;0.70;;
14294;SDS011;7231;59.370;18.016;2023-10-19T08:48:23;1.43;;;0.80;;
14294;SDS011;7231;59.370;18.016;2023-10-19T08:50:53;3.53;;;0.90;;
14294;SDS011;7231;59.370;18.016;2023-10-19T08:53:22;0.80;;;0.73;;
14294;SDS011;7231;59.370;18.016;2023-10-19T08:55:51;3.25;;;1.05;;
14294;SDS011;7231;59.370;18.016;2023-10-19T08:58:21;2.13;;;1.00;;
14294;SDS011;7231;59.370;18.016;2023-10-19T09:00:50;1.83;;;1.33;;
14294;SDS011;7231;59.370;18.016;2023-10-19T09:03:21;1.75;;;1.05;;
14294;SDS011;7231;59.370;18.016;2023-10-19T09:05:53;1.00;;;0.75;;
14294;SDS011;7231;59.370;18.016;2023-10-19T09:08:23;1.42;;;0.98;;
14294;SDS011;7231;59.370;18.016;2023-10-19T09:10:51;0.98;;;0.60;;
14294;SDS011;7231;59.370;18.016;2023-10-19T09:13:21;1.23;;;0.68;;
14294;SDS011;7231;59.370;18.016;2023-10-19T09:15:51;2.20;;;0.68;;
14294;SDS011;7231;59.370;18.016;2023-10-19T09:18:23;2.65;;;0.70;;
14294;SDS011;7231;59.370;18.016;2023-10-19T09:20:56;0.57;;;0.50;;
14294;SDS011;7231;59.370;18.016;2023-10-19T09:23:34;1.98;;;0.90;;
14294;SDS011;7231;59.370;18.016;2023-10-19T09:26:04;1.25;;;0.60;;
14294;SDS011;7231;59.370;18.016;2023-10-19T09:28:34;1.33;;;0.70;;
14294;SDS011;7231;59.370;18.016;2023-10-19T09:31:04;1.67;;;0.90;;
14294;SDS011;7231;59.370;18.016;2023-10-19T09:33:37;0.80;;;0.60;;
14294;SDS011;7231;59.370;18.016;2023-10-19T09:36:12;0.83;;;0.60;;
14294;SDS011;7231;59.370;18.016;2023-10-19T09:38:44;1.27;;;0.60;;
14294;SDS011;7231;59.370;18.016;2023-10-19T09:41:15;3.40;;;0.67;;
14294;SDS011;7231;59.370;18.016;2023-10-19T09:43:45;1.77;;;0.87;;
14294;SDS011;7231;59.370;18.016;2023-10-19T09:46:20;1.77;;;0.97;;
14294;SDS011;7231;59.370;18.016;2023-10-19T09:48:50;2.93;;;0.90;;
14294;SDS011;7231;59.370;18.016;2023-10-19T09:51:20;1.30;;;0.70;;
14294;SDS011;7231;59.370;18.016;2023-10-19T09:53:51;1.43;;;0.60;;
14294;SDS011;7231;59.370;18.016;2023-10-19T09:56:26;0.87;;;0.60;;
14294;SDS011;7231;59.370;18.016;2023-10-19T09:59:01;2.07;;;1.07;;
14294;SDS011;7231;59.370;18.016;2023-10-19T10:04:35;1.73;;;0.93;;
14294;SDS011;7231;59.370;18.016;2023-10-19T10:07:05;1.10;;;0.83;;
14294;SDS011;7231;59.370;18.016;2023-10-19T10:09:34;1.10;;;0.90;;
14294;SDS011;7231;59.370;18.016;2023-10-19T10:12:15;0.93;;;0.60;;
14294;SDS011;7231;59.370;18.016;2023-10-19T10:14:53;0.75;;;0.70;;
14294;SDS011;7231;59.370;18.016;2023-10-19T10:17:24;1.90;;;0.90;;
14294;SDS011;7231;59.370;18.016;2023-10-19T10:19:53;1.77;;;0.73;;
14294;SDS011;7231;59.370;18.016;2023-10-19T10:22:25;1.65;;;0.90;;
14294;SDS011;7231;59.370;18.016;2023-10-19T10:24:54;2.17;;;0.90;;
14294;SDS011;7231;59.370;18.016;2023-10-19T10:27:23;1.23;;;0.80;;
14294;SDS011;7231;59.370;18.016;2023-10-19T10:29:55;2.00;;;0.90;;
14294;SDS011;7231;59.370;18.016;2023-10-19T10:32:44;2.67;;;0.90;;
14294;SDS011;7231;59.370;18.016;2023-10-19T10:38:21;1.60;;;0.88;;
14294;SDS011;7231;59.370;18.016;2023-10-19T10:40:49;1.50;;;0.93;;
14294;SDS011;7231;59.370;18.016;2023-10-19T10:43:18;1.70;;;0.88;;
14294;SDS011;7231;59.370;18.016;2023-10-19T10:45:48;1.63;;;1.02;;
14294;SDS011;7231;59.370;18.016;2023-10-19T10:48:16;3.45;;;1.15;;
14294;SDS011;7231;59.370;18.016;2023-10-19T10:50:46;2.75;;;1.23;;
14294;SDS011;7231;59.370;18.016;2023-10-19T10:53:14;1.73;;;1.00;;
14294;SDS011;7231;59.370;18.016;2023-10-19T10:55:44;2.00;;;1.00;;
14294;SDS011;7231;59.370;18.016;2023-10-19T10:58:14;2.13;;;1.33;;
14294;SDS011;7231;59.370;18.016;2023-10-19T11:00:42;1.73;;;1.00;;
14294;SDS011;7231;59.370;18.016;2023-10-19T11:03:11;1.67;;;1.23;;
14294;SDS011;7231;59.370;18.016;2023-10-19T11:05:40;1.33;;;1.23;;
14294;SDS011;7231;59.370;18.016;2023-10-19T11:08:12;2.17;;;1.23;;
14294;SDS011;7231;59.370;18.016;2023-10-19T11:10:44;1.55;;;1.25;;
14294;SDS011;7231;59.370;18.016;2023-10-19T11:13:13;2.85;;;0.80;;
14294;SDS011;7231;59.370;18.016;2023-10-19T11:15:47;2.33;;;1.20;;
14294;SDS011;7231;59.370;18.016;2023-10-19T11:18:29;1.63;;;1.03;;
14294;SDS011;7231;59.370;18.016;2023-10-19T11:20:58;1.33;;;1.10;;
14294;SDS011;7231;59.370;18.016;2023-10-19T11:23:34;1.37;;;1.10;;
14294;SDS011;7231;59.370;18.016;2023-10-19T11:26:07;3.20;;;1.50;;
14294;SDS011;7231;59.370;18.016;2023-10-19T11:28:36;2.60;;;1.30;;
14294;SDS011;7231;59.370;18.016;2023-10-19T11:31:13;1.63;;;1.30;;
14294;SDS011;7231;59.370;18.016;2023-10-19T11:33:42;1.80;;;1.27;;
14294;SDS011;7231;59.370;18.016;2023-10-19T11:36:11;1.40;;;1.07;;
14294;SDS011;7231;59.370;18.016;2023-10-19T11:38:40;1.98;;;1.00;;
14294;SDS011;7231;59.370;18.016;2023-10-19T11:41:10;3.50;;;1.25;;
14294;SDS011;7231;59.370;18.016;2023-10-19T11:43:39;1.83;;;1.20;;
14294;SDS011;7231;59.370;18.016;2023-10-19T11:46:07;3.45;;;0.98;;
14294;SDS011;7231;59.370;18.016;2023-10-19T11:48:36;7.32;;;1.00;;
14294;SDS011;7231;59.370;18.016;2023-10-19T11:51:04;1.75;;;1.10;;
14294;SDS011;7231;59.370;18.016;2023-10-19T11:53:32;1.83;;;1.17;;
14294;SDS011;7231;59.370;18.016;2023-10-19T11:56:03;2.10;;;1.20;;
14294;SDS011;7231;59.370;18.016;2023-10-19T11:58:33;2.28;;;1.10;;
14294;SDS011;7231;59.370;18.016;2023-10-19T12:01:04;1.45;;;1.10;;
14294;SDS011;7231;59.370;18.016;2023-10-19T12:03:35;3.58;;;1.98;;
14294;SDS011;7231;59.370;18.016;2023-10-19T12:06:03;1.27;;;1.17;;
14294;SDS011;7231;59.370;18.016;2023-10-19T12:08:32;2.28;;;1.23;;
14294;SDS011;7231;59.370;18.016;2023-10-19T12:11:02;2.97;;;1.30;;
14294;SDS011;7231;59.370;18.016;2023-10-19T12:13:30;2.78;;;1.00;;
14294;SDS011;7231;59.370;18.016;2023-10-19T12:16:00;2.28;;;0.95;;
14294;SDS011;7231;59.370;18.016;2023-10-19T12:18:31;2.25;;;1.10;;
14294;SDS011;7231;59.370;18.016;2023-10-19T12:20:59;1.98;;;1.00;;
14294;SDS011;7231;59.370;18.016;2023-10-19T12:23:27;2.20;;;1.20;;
14294;SDS011;7231;59.370;18.016;2023-10-19T12:25:57;0.90;;;0.90;;
14294;SDS011;7231;59.370;18.016;2023-10-19T12:28:29;1.63;;;1.10;;
14294;SDS011;7231;59.370;18.016;2023-10-19T12:30:56;1.02;;;0.82;;
14294;SDS011;7231;59.370;18.016;2023-10-19T12:33:26;1.73;;;0.80;;
14294;SDS011;7231;59.370;18.016;2023-10-19T12:35:55;1.75;;;0.98;;
14294;SDS011;7231;59.370;18.016;2023-10-19T12:38:24;1.30;;;1.00;;
14294;SDS011;7231;59.370;18.016;2023-10-19T12:40:52;1.38;;;0.90;;
14294;SDS011;7231;59.370;18.016;2023-10-19T12:43:21;1.63;;;0.80;;
14294;SDS011;7231;59.370;18.016;2023-10-19T12:45:49;1.75;;;0.80;;
14294;SDS011;7231;59.370;18.016;2023-10-19T12:48:21;3.53;;;1.08;;
14294;SDS011;7231;59.370;18.016;2023-10-19T12:50:53;4.40;;;0.82;;
14294;SDS011;7231;59.370;18.016;2023-10-19T12:53:22;0.85;;;0.70;;
14294;SDS011;7231;59.370;18.016;2023-10-19T12:55:51;0.80;;;0.70;;
14294;SDS011;7231;59.370;18.016;2023-10-19T12:58:20;1.05;;;0.70;;
14294;SDS011;7231;59.370;18.016;2023-10-19T13:00:48;1.77;;;1.00;;
14294;SDS011;7231;59.370;18.016;2023-10-19T13:03:16;1.10;;;0.90;;
14294;SDS011;7231;59.370;18.016;2023-10-19T13:05:45;1.13;;;0.70;;
14294;SDS011;7231;59.370;18.016;2023-10-19T13:08:14;1.20;;;0.90;;
14294;SDS011;7231;59.370;18.016;2023-10-19T13:10:43;1.83;;;0.98;;
14294;SDS011;7231;59.370;18.016;2023-10-19T13:13:13;1.85;;;0.90;;
14294;SDS011;7231;59.370;18.016;2023-10-19T13:15:43;1.08;;;0.73;;
14294;SDS011;7231;59.370;18.016;2023-10-19T13:18:13;1.05;;;0.95;;
14294;SDS011;7231;59.370;18.016;2023-10-19T13:20:46;2.00;;;0.93;;
14294;SDS011;7231;59.370;18.016;2023-10-19T13:23:16;3.65;;;2.20;;
14294;SDS011;7231;59.370;18.016;2023-10-19T13:25:48;2.67;;;1.20;;
14294;SDS011;7231;59.370;18.016;2023-10-19T13:28:20;1.23;;;0.82;;
14294;SDS011;7231;59.370;18.016;2023-10-19T13:30:49;1.52;;;0.98;;
14294;SDS011;7231;59.370;18.016;2023-10-19T13:33:20;1.73;;;1.00;;
14294;SDS011;7231;59.370;18.016;2023-10-19T13:35:50;1.77;;;1.00;;
14294;SDS011;7231;59.370;18.016;2023-10-19T13:38:20;1.48;;;0.82;;
14294;SDS011;7231;59.370;18.016;2023-10-19T13:40:48;1.77;;;0.85;;
14294;SDS011;7231;59.370;18.016;2023-10-19T13:43:17;1.23;;;0.93;;
14294;SDS011;7231;59.370;18.016;2023-10-19T13:45:46;1.92;;;1.00;;
14294;SDS011;7231;59.370;18.016;2023-10-19T13:48:15;1.55;;;0.88;;
14294;SDS011;7231;59.370;18.016;2023-10-19T13:50:44;0.90;;;0.68;;
14294;SDS011;7231;59.370;18.016;2023-10-19T13:53:15;1.17;;;0.80;;
14294;SDS011;7231;59.370;18.016;2023-10-19T13:55:45;2.17;;;0.85;;
14294;SDS011;7231;59.370;18.016;2023-10-19T13:58:13;3.25;;;0.88;;
14294;SDS011;7231;59.370;18.016;2023-10-19T14:00:41;2.47;;;1.30;;
14294;SDS011;7231;59.370;18.016;2023-10-19T14:03:10;3.88;;;1.10;;
14294;SDS011;7231;59.370;18.016;2023-10-19T14:05:41;0.73;;;0.68;;
14294;SDS011;7231;59.370;18.016;2023-10-19T14:08:14;1.10;;;0.98;;
14294;SDS011;7231;59.370;18.016;2023-10-19T14:10:45;1.27;;;0.80;;
14294;SDS011;7231;59.370;18.016;2023-10-19T14:13:13;2.97;;;0.93;;
14294;SDS011;7231;59.370;18.016;2023-10-19T14:15:41;1.75;;;0.80;;
14294;SDS011;7231;59.370;18.016;2023-10-19T14:18:10;2.35;;;1.15;;
14294;SDS011;7231;59.370;18.016;2023-10-19T14:20:38;3.67;;;1.20;;
14294;SDS011;7231;59.370;18.016;2023-10-19T14:23:07;2.67;;;1.10;;
14294;SDS011;7231;59.370;18.016;2023-10-19T14:25:37;3.28;;;1.27;;
14294;SDS011;7231;59.370;18.016;2023-10-19T14:28:08;1.20;;;1.10;;
14294;SDS011;7231;59.370;18.016;2023-10-19T14:30:36;2.55;;;1.02;;
14294;SDS011;7231;59.370;18.016;2023-10-19T14:33:04;3.53;;;1.20;;
14294;SDS011;7231;59.370;18.016;2023-10-19T14:35:37;1.87;;;1.50;;
14294;SDS011;7231;59.370;18.016;2023-10-19T14:38:08;4.10;;;1.40;;
14294;SDS011;7231;59.370;18.016;2023-10-19T14:40:40;1.53;;;0.97;;
14294;SDS011;7231;59.370;18.016;2023-10-19T14:43:12;2.90;;;1.10;;
14294;SDS011;7231;59.370;18.016;2023-10-19T14:45:40;3.37;;;1.00;;
14294;SDS011;7231;59.370;18.016;2023-10-19T14:48:08;2.37;;;1.10;;
14294;SDS011;7231;59.370;18.016;2023-10-19T14:50:37;1.70;;;0.97;;
14294;SDS011;7231;59.370;18.016;2023-10-19T14:53:05;2.60;;;1.10;;
14294;SDS011;7231;59.370;18.016;2023-10-19T14:55:33;1.60;;;1.00;;
14294;SDS011;7231;59.370;18.016;2023-10-19T14:58:02;1.67;;;0.90;;
14294;SDS011;7231;59.370;18.016;2023-10-19T15:00:34;1.30;;;1.20;;
14294;SDS011;7231;59.370;18.016;2023-10-19T15:03:04;1.13;;;0.80;;
14294;SDS011;7231;59.370;18.016;2023-10-19T15:05:35;1.50;;;1.10;;
14294;SDS011;7231;59.370;18.016;2023-10-19T15:08:04;2.70;;;0.93;;
14294;SDS011;7231;59.370;18.016;2023-10-19T15:10:34;2.67;;;1.43;;
14294;SDS011;7231;59.370;18.016;2023-10-19T15:13:08;1.50;;;1.07;;